KOJC/OJC METAR and TAF weather

Enter ICAO airport designator
Station Type Date Time Source
KOJC METAR 2019/08/20 09:53 UTC NOAA

KOJC 200953Z AUTO 20010KT 10SM CLR 26/23 A2994 RMK AO2 SLP125 T02560233


Station Type Date Time Source
KOJC Decoded METAR 2019/08/20 09:53 UTC NOAA

OLATHE JOHNSON CO EXECUTIVE, KS, United States (KOJC) 38-50N 94-44W 326M
Aug 20, 2019 - 05:53 AM EDT / 2019.08.20 0953 UTC
Wind: from the SSW (200 degrees) at 12 MPH (10 KT):0
Visibility: 10 mile(s):0
Sky conditions: clear
Temperature: 78.1 F (25.6 C)
Dew Point: 73.9 F (23.3 C)
Relative Humidity: 87%
Pressure (altimeter): 29.94 in. Hg (1013 hPa)
ob: KOJC 200953Z AUTO 20010KT 10SM CLR 26/23 A2994 RMK AO2 SLP125 T02560233
cycle: 10

Station Type Date Time Source
KOJC TAF UTC NOAA

Error!

Example: see airport list